sensor_id;sensor_type;location;lat;lon;timestamp;P1;durP1;ratioP1;P2;durP2;ratioP2
17753;SDS011;8999;48.994;9.150;2024-01-27T00:00:10;5.67;;;3.03;;
17753;SDS011;8999;48.994;9.150;2024-01-27T00:02:44;5.10;;;2.30;;
17753;SDS011;8999;48.994;9.150;2024-01-27T00:05:17;4.67;;;2.33;;
17753;SDS011;8999;48.994;9.150;2024-01-27T00:07:49;4.13;;;2.40;;
17753;SDS011;8999;48.994;9.150;2024-01-27T00:10:20;6.80;;;2.57;;
17753;SDS011;8999;48.994;9.150;2024-01-27T00:12:52;8.07;;;2.63;;
17753;SDS011;8999;48.994;9.150;2024-01-27T00:15:24;8.60;;;2.90;;
17753;SDS011;8999;48.994;9.150;2024-01-27T00:17:55;6.03;;;3.07;;
17753;SDS011;8999;48.994;9.150;2024-01-27T00:20:28;4.70;;;2.07;;
17753;SDS011;8999;48.994;9.150;2024-01-27T00:23:00;5.43;;;2.07;;
17753;SDS011;8999;48.994;9.150;2024-01-27T00:25:32;6.20;;;2.90;;
17753;SDS011;8999;48.994;9.150;2024-01-27T00:28:04;7.60;;;2.57;;
17753;SDS011;8999;48.994;9.150;2024-01-27T00:30:36;6.10;;;3.30;;
17753;SDS011;8999;48.994;9.150;2024-01-27T00:33:07;5.13;;;3.07;;
17753;SDS011;8999;48.994;9.150;2024-01-27T00:35:40;12.67;;;4.47;;
17753;SDS011;8999;48.994;9.150;2024-01-27T00:38:12;9.83;;;4.37;;
17753;SDS011;8999;48.994;9.150;2024-01-27T00:40:43;11.97;;;4.83;;
17753;SDS011;8999;48.994;9.150;2024-01-27T00:43:15;10.53;;;4.40;;
17753;SDS011;8999;48.994;9.150;2024-01-27T00:45:47;9.30;;;4.03;;
17753;SDS011;8999;48.994;9.150;2024-01-27T00:48:19;9.10;;;3.93;;
17753;SDS011;8999;48.994;9.150;2024-01-27T00:50:52;7.50;;;4.20;;
17753;SDS011;8999;48.994;9.150;2024-01-27T00:53:24;10.37;;;4.23;;
17753;SDS011;8999;48.994;9.150;2024-01-27T00:55:56;7.70;;;4.70;;
17753;SDS011;8999;48.994;9.150;2024-01-27T00:58:28;9.87;;;5.13;;
17753;SDS011;8999;48.994;9.150;2024-01-27T01:01:02;10.27;;;5.30;;
17753;SDS011;8999;48.994;9.150;2024-01-27T01:03:40;11.73;;;5.27;;
17753;SDS011;8999;48.994;9.150;2024-01-27T01:06:13;11.23;;;5.03;;
17753;SDS011;8999;48.994;9.150;2024-01-27T01:08:45;10.90;;;4.93;;
17753;SDS011;8999;48.994;9.150;2024-01-27T01:11:17;9.03;;;4.30;;
17753;SDS011;8999;48.994;9.150;2024-01-27T01:13:48;7.97;;;4.10;;
17753;SDS011;8999;48.994;9.150;2024-01-27T01:16:20;8.00;;;4.70;;
17753;SDS011;8999;48.994;9.150;2024-01-27T01:18:51;10.03;;;4.23;;
17753;SDS011;8999;48.994;9.150;2024-01-27T01:21:24;8.27;;;4.80;;
17753;SDS011;8999;48.994;9.150;2024-01-27T01:23:57;10.53;;;4.50;;
17753;SDS011;8999;48.994;9.150;2024-01-27T01:26:28;8.50;;;4.23;;
17753;SDS011;8999;48.994;9.150;2024-01-27T01:29:00;8.57;;;4.67;;
17753;SDS011;8999;48.994;9.150;2024-01-27T01:31:31;12.47;;;4.67;;
17753;SDS011;8999;48.994;9.150;2024-01-27T01:34:03;7.80;;;4.60;;
17753;SDS011;8999;48.994;9.150;2024-01-27T01:36:36;13.47;;;5.00;;
17753;SDS011;8999;48.994;9.150;2024-01-27T01:39:09;7.87;;;4.70;;
17753;SDS011;8999;48.994;9.150;2024-01-27T01:41:43;8.83;;;4.37;;
17753;SDS011;8999;48.994;9.150;2024-01-27T01:44:14;7.93;;;4.50;;
17753;SDS011;8999;48.994;9.150;2024-01-27T01:46:46;8.27;;;4.10;;
17753;SDS011;8999;48.994;9.150;2024-01-27T01:49:18;10.47;;;4.00;;
17753;SDS011;8999;48.994;9.150;2024-01-27T01:51:51;7.87;;;4.00;;
17753;SDS011;8999;48.994;9.150;2024-01-27T01:54:23;7.20;;;3.70;;
17753;SDS011;8999;48.994;9.150;2024-01-27T01:56:57;7.43;;;3.73;;
17753;SDS011;8999;48.994;9.150;2024-01-27T01:59:29;8.43;;;3.70;;
17753;SDS011;8999;48.994;9.150;2024-01-27T02:02:01;7.80;;;3.83;;
17753;SDS011;8999;48.994;9.150;2024-01-27T02:04:38;8.37;;;4.07;;
17753;SDS011;8999;48.994;9.150;2024-01-27T02:07:12;8.50;;;4.30;;
17753;SDS011;8999;48.994;9.150;2024-01-27T02:09:44;9.07;;;4.07;;
17753;SDS011;8999;48.994;9.150;2024-01-27T02:12:15;6.97;;;3.70;;
17753;SDS011;8999;48.994;9.150;2024-01-27T02:14:47;5.87;;;3.13;;
17753;SDS011;8999;48.994;9.150;2024-01-27T02:17:18;7.20;;;3.53;;
17753;SDS011;8999;48.994;9.150;2024-01-27T02:19:50;12.40;;;3.77;;
17753;SDS011;8999;48.994;9.150;2024-01-27T02:22:23;7.63;;;3.80;;
17753;SDS011;8999;48.994;9.150;2024-01-27T02:24:56;9.83;;;4.70;;
17753;SDS011;8999;48.994;9.150;2024-01-27T02:27:28;8.77;;;5.07;;
17753;SDS011;8999;48.994;9.150;2024-01-27T02:29:59;8.87;;;5.10;;
17753;SDS011;8999;48.994;9.150;2024-01-27T02:32:31;9.33;;;4.87;;
17753;SDS011;8999;48.994;9.150;2024-01-27T02:35:03;10.53;;;5.23;;
17753;SDS011;8999;48.994;9.150;2024-01-27T02:37:35;10.87;;;4.70;;
17753;SDS011;8999;48.994;9.150;2024-01-27T02:40:09;13.93;;;5.50;;
17753;SDS011;8999;48.994;9.150;2024-01-27T02:42:41;8.13;;;4.73;;
17753;SDS011;8999;48.994;9.150;2024-01-27T02:45:13;9.57;;;5.20;;
17753;SDS011;8999;48.994;9.150;2024-01-27T02:47:45;11.00;;;6.33;;
17753;SDS011;8999;48.994;9.150;2024-01-27T02:50:17;12.53;;;5.97;;
17753;SDS011;8999;48.994;9.150;2024-01-27T02:52:49;8.50;;;4.60;;
17753;SDS011;8999;48.994;9.150;2024-01-27T02:55:22;9.90;;;4.90;;
17753;SDS011;8999;48.994;9.150;2024-01-27T02:57:54;9.17;;;4.67;;
17753;SDS011;8999;48.994;9.150;2024-01-27T03:00:24;9.30;;;5.03;;
17753;SDS011;8999;48.994;9.150;2024-01-27T03:02:56;7.93;;;4.43;;
17753;SDS011;8999;48.994;9.150;2024-01-27T03:05:29;9.73;;;4.37;;
17753;SDS011;8999;48.994;9.150;2024-01-27T03:08:00;8.13;;;4.70;;
17753;SDS011;8999;48.994;9.150;2024-01-27T03:10:33;8.33;;;4.43;;
17753;SDS011;8999;48.994;9.150;2024-01-27T03:13:05;5.63;;;4.30;;
17753;SDS011;8999;48.994;9.150;2024-01-27T03:15:36;8.40;;;4.63;;
17753;SDS011;8999;48.994;9.150;2024-01-27T03:18:08;9.73;;;4.77;;
17753;SDS011;8999;48.994;9.150;2024-01-27T03:20:40;9.83;;;5.00;;
17753;SDS011;8999;48.994;9.150;2024-01-27T03:23:12;13.23;;;5.10;;
17753;SDS011;8999;48.994;9.150;2024-01-27T03:25:45;12.60;;;5.47;;
17753;SDS011;8999;48.994;9.150;2024-01-27T03:28:17;9.00;;;5.47;;
17753;SDS011;8999;48.994;9.150;2024-01-27T03:30:49;9.40;;;5.63;;
17753;SDS011;8999;48.994;9.150;2024-01-27T03:33:20;9.07;;;5.37;;
17753;SDS011;8999;48.994;9.150;2024-01-27T03:35:53;9.93;;;5.17;;
17753;SDS011;8999;48.994;9.150;2024-01-27T03:38:24;10.53;;;5.20;;
17753;SDS011;8999;48.994;9.150;2024-01-27T03:40:57;12.57;;;5.43;;
17753;SDS011;8999;48.994;9.150;2024-01-27T03:43:29;12.03;;;5.40;;
17753;SDS011;8999;48.994;9.150;2024-01-27T03:49:42;9.87;;;5.93;;
17753;SDS011;8999;48.994;9.150;2024-01-27T03:52:31;11.30;;;5.20;;
17753;SDS011;8999;48.994;9.150;2024-01-27T03:55:31;7.63;;;5.33;;
17753;SDS011;8999;48.994;9.150;2024-01-27T03:58:05;10.73;;;5.73;;
17753;SDS011;8999;48.994;9.150;2024-01-27T04:00:37;16.83;;;5.93;;
17753;SDS011;8999;48.994;9.150;2024-01-27T04:03:09;7.73;;;5.40;;
17753;SDS011;8999;48.994;9.150;2024-01-27T04:05:40;10.60;;;5.77;;
17753;SDS011;8999;48.994;9.150;2024-01-27T04:08:12;18.37;;;6.60;;
17753;SDS011;8999;48.994;9.150;2024-01-27T04:10:44;30.90;;;12.53;;
17753;SDS011;8999;48.994;9.150;2024-01-27T04:13:17;22.27;;;8.53;;
17753;SDS011;8999;48.994;9.150;2024-01-27T04:15:48;21.43;;;8.70;;
17753;SDS011;8999;48.994;9.150;2024-01-27T04:18:21;11.23;;;6.50;;
17753;SDS011;8999;48.994;9.150;2024-01-27T04:20:53;12.37;;;5.63;;
17753;SDS011;8999;48.994;9.150;2024-01-27T04:23:24;14.40;;;6.20;;
17753;SDS011;8999;48.994;9.150;2024-01-27T04:25:56;11.27;;;6.23;;
17753;SDS011;8999;48.994;9.150;2024-01-27T04:28:29;11.53;;;6.60;;
17753;SDS011;8999;48.994;9.150;2024-01-27T04:31:01;10.07;;;5.80;;
17753;SDS011;8999;48.994;9.150;2024-01-27T04:33:33;11.40;;;6.30;;
17753;SDS011;8999;48.994;9.150;2024-01-27T04:36:04;85.70;;;29.67;;
17753;SDS011;8999;48.994;9.150;2024-01-27T04:38:38;25.67;;;10.97;;
17753;SDS011;8999;48.994;9.150;2024-01-27T04:41:10;11.13;;;6.13;;
17753;SDS011;8999;48.994;9.150;2024-01-27T04:43:43;12.20;;;6.63;;
17753;SDS011;8999;48.994;9.150;2024-01-27T04:46:14;11.80;;;6.27;;
17753;SDS011;8999;48.994;9.150;2024-01-27T04:48:46;10.77;;;5.80;;
17753;SDS011;8999;48.994;9.150;2024-01-27T04:51:18;38.30;;;16.03;;
17753;SDS011;8999;48.994;9.150;2024-01-27T04:53:49;16.17;;;7.17;;
17753;SDS011;8999;48.994;9.150;2024-01-27T04:56:21;14.13;;;7.07;;
17753;SDS011;8999;48.994;9.150;2024-01-27T04:58:54;9.20;;;5.70;;
17753;SDS011;8999;48.994;9.150;2024-01-27T05:01:26;10.30;;;5.27;;
17753;SDS011;8999;48.994;9.150;2024-01-27T05:03:57;12.70;;;6.40;;
17753;SDS011;8999;48.994;9.150;2024-01-27T05:06:29;13.37;;;6.63;;
17753;SDS011;8999;48.994;9.150;2024-01-27T05:09:01;10.37;;;6.33;;
17753;SDS011;8999;48.994;9.150;2024-01-27T05:11:32;11.87;;;6.57;;
17753;SDS011;8999;48.994;9.150;2024-01-27T05:14:05;10.47;;;6.10;;
17753;SDS011;8999;48.994;9.150;2024-01-27T05:16:37;13.90;;;6.10;;
17753;SDS011;8999;48.994;9.150;2024-01-27T05:19:09;9.93;;;6.00;;
17753;SDS011;8999;48.994;9.150;2024-01-27T05:21:41;11.30;;;6.67;;
17753;SDS011;8999;48.994;9.150;2024-01-27T05:24:13;10.33;;;6.30;;
17753;SDS011;8999;48.994;9.150;2024-01-27T05:26:44;10.87;;;6.50;;
17753;SDS011;8999;48.994;9.150;2024-01-27T05:29:17;11.23;;;6.73;;
17753;SDS011;8999;48.994;9.150;2024-01-27T05:31:49;9.47;;;5.87;;
17753;SDS011;8999;48.994;9.150;2024-01-27T05:34:21;8.83;;;5.53;;
17753;SDS011;8999;48.994;9.150;2024-01-27T05:36:52;12.30;;;5.77;;
17753;SDS011;8999;48.994;9.150;2024-01-27T05:39:24;9.40;;;5.80;;
17753;SDS011;8999;48.994;9.150;2024-01-27T05:41:55;12.17;;;6.63;;
17753;SDS011;8999;48.994;9.150;2024-01-27T05:44:28;11.57;;;6.47;;
17753;SDS011;8999;48.994;9.150;2024-01-27T05:47:00;13.70;;;7.23;;
17753;SDS011;8999;48.994;9.150;2024-01-27T05:49:32;16.27;;;7.30;;
17753;SDS011;8999;48.994;9.150;2024-01-27T05:52:03;10.40;;;6.37;;
17753;SDS011;8999;48.994;9.150;2024-01-27T05:54:36;13.40;;;7.10;;
17753;SDS011;8999;48.994;9.150;2024-01-27T05:57:07;15.97;;;6.83;;
17753;SDS011;8999;48.994;9.150;2024-01-27T05:59:40;14.33;;;6.93;;
17753;SDS011;8999;48.994;9.150;2024-01-27T06:02:12;13.23;;;6.97;;
17753;SDS011;8999;48.994;9.150;2024-01-27T06:04:44;18.27;;;11.17;;
17753;SDS011;8999;48.994;9.150;2024-01-27T06:07:15;14.30;;;7.87;;
17753;SDS011;8999;48.994;9.150;2024-01-27T06:09:47;14.57;;;7.93;;
17753;SDS011;8999;48.994;9.150;2024-01-27T06:12:19;13.03;;;7.63;;
17753;SDS011;8999;48.994;9.150;2024-01-27T06:14:52;12.90;;;7.70;;
17753;SDS011;8999;48.994;9.150;2024-01-27T06:17:24;11.70;;;7.20;;
17753;SDS011;8999;48.994;9.150;2024-01-27T06:19:55;11.90;;;7.23;;
17753;SDS011;8999;48.994;9.150;2024-01-27T06:22:27;15.30;;;7.27;;
17753;SDS011;8999;48.994;9.150;2024-01-27T06:24:58;12.37;;;7.00;;
17753;SDS011;8999;48.994;9.150;2024-01-27T06:27:30;15.13;;;8.30;;
17753;SDS011;8999;48.994;9.150;2024-01-27T06:30:04;13.30;;;7.10;;
17753;SDS011;8999;48.994;9.150;2024-01-27T06:32:37;12.10;;;6.87;;
17753;SDS011;8999;48.994;9.150;2024-01-27T06:35:08;12.53;;;7.53;;
17753;SDS011;8999;48.994;9.150;2024-01-27T06:37:40;14.37;;;7.70;;
17753;SDS011;8999;48.994;9.150;2024-01-27T06:40:12;13.43;;;8.07;;
17753;SDS011;8999;48.994;9.150;2024-01-27T06:42:44;13.53;;;7.67;;
17753;SDS011;8999;48.994;9.150;2024-01-27T06:45:17;14.30;;;8.27;;
17753;SDS011;8999;48.994;9.150;2024-01-27T06:47:48;15.67;;;8.50;;
17753;SDS011;8999;48.994;9.150;2024-01-27T06:50:20;13.83;;;8.40;;
17753;SDS011;8999;48.994;9.150;2024-01-27T06:52:53;12.20;;;8.17;;
17753;SDS011;8999;48.994;9.150;2024-01-27T06:55:24;14.77;;;7.90;;
17753;SDS011;8999;48.994;9.150;2024-01-27T06:57:56;13.20;;;8.23;;
17753;SDS011;8999;48.994;9.150;2024-01-27T07:00:29;12.63;;;8.10;;
17753;SDS011;8999;48.994;9.150;2024-01-27T07:03:02;14.33;;;8.40;;
17753;SDS011;8999;48.994;9.150;2024-01-27T07:05:37;12.83;;;7.83;;
17753;SDS011;8999;48.994;9.150;2024-01-27T07:08:11;16.03;;;8.30;;
17753;SDS011;8999;48.994;9.150;2024-01-27T07:10:43;17.73;;;8.00;;
17753;SDS011;8999;48.994;9.150;2024-01-27T07:13:14;13.67;;;7.93;;
17753;SDS011;8999;48.994;9.150;2024-01-27T07:15:47;15.33;;;8.30;;
17753;SDS011;8999;48.994;9.150;2024-01-27T07:18:19;13.37;;;7.70;;
17753;SDS011;8999;48.994;9.150;2024-01-27T07:20:52;16.03;;;8.50;;
17753;SDS011;8999;48.994;9.150;2024-01-27T07:23:25;14.20;;;8.17;;
17753;SDS011;8999;48.994;9.150;2024-01-27T07:25:56;16.53;;;8.77;;
17753;SDS011;8999;48.994;9.150;2024-01-27T07:28:33;13.27;;;8.60;;
17753;SDS011;8999;48.994;9.150;2024-01-27T07:31:07;14.10;;;8.13;;
17753;SDS011;8999;48.994;9.150;2024-01-27T07:33:39;17.13;;;8.57;;
17753;SDS011;8999;48.994;9.150;2024-01-27T07:36:10;11.73;;;8.13;;
17753;SDS011;8999;48.994;9.150;2024-01-27T07:38:42;16.73;;;8.10;;
17753;SDS011;8999;48.994;9.150;2024-01-27T07:41:14;15.80;;;8.90;;
17753;SDS011;8999;48.994;9.150;2024-01-27T07:43:46;19.40;;;9.67;;
17753;SDS011;8999;48.994;9.150;2024-01-27T07:46:18;17.17;;;10.23;;
17753;SDS011;8999;48.994;9.150;2024-01-27T07:48:52;18.00;;;11.10;;
17753;SDS011;8999;48.994;9.150;2024-01-27T07:51:24;20.87;;;12.10;;
17753;SDS011;8999;48.994;9.150;2024-01-27T07:53:56;20.67;;;12.03;;
17753;SDS011;8999;48.994;9.150;2024-01-27T07:56:27;20.70;;;11.93;;
17753;SDS011;8999;48.994;9.150;2024-01-27T07:58:59;20.43;;;11.23;;
17753;SDS011;8999;48.994;9.150;2024-01-27T08:01:32;17.87;;;9.23;;
17753;SDS011;8999;48.994;9.150;2024-01-27T08:04:03;17.40;;;9.20;;
17753;SDS011;8999;48.994;9.150;2024-01-27T08:06:45;16.97;;;8.83;;
17753;SDS011;8999;48.994;9.150;2024-01-27T08:09:17;13.77;;;9.13;;
17753;SDS011;8999;48.994;9.150;2024-01-27T08:11:49;14.97;;;8.33;;
17753;SDS011;8999;48.994;9.150;2024-01-27T08:14:22;15.83;;;9.27;;
17753;SDS011;8999;48.994;9.150;2024-01-27T08:16:55;13.47;;;8.70;;
17753;SDS011;8999;48.994;9.150;2024-01-27T08:19:27;17.17;;;10.70;;
17753;SDS011;8999;48.994;9.150;2024-01-27T08:21:59;25.53;;;14.87;;
17753;SDS011;8999;48.994;9.150;2024-01-27T08:24:30;19.43;;;12.90;;
17753;SDS011;8999;48.994;9.150;2024-01-27T08:27:02;19.13;;;11.77;;
17753;SDS011;8999;48.994;9.150;2024-01-27T08:29:34;23.57;;;13.37;;
17753;SDS011;8999;48.994;9.150;2024-01-27T08:32:07;20.67;;;12.80;;
17753;SDS011;8999;48.994;9.150;2024-01-27T08:34:39;18.73;;;11.80;;
17753;SDS011;8999;48.994;9.150;2024-01-27T08:37:14;18.47;;;11.13;;
17753;SDS011;8999;48.994;9.150;2024-01-27T08:39:47;19.60;;;11.77;;
17753;SDS011;8999;48.994;9.150;2024-01-27T08:42:21;18.13;;;11.20;;
17753;SDS011;8999;48.994;9.150;2024-01-27T08:44:53;22.43;;;12.70;;
17753;SDS011;8999;48.994;9.150;2024-01-27T08:47:26;23.77;;;12.37;;
17753;SDS011;8999;48.994;9.150;2024-01-27T08:49:57;24.87;;;12.90;;
17753;SDS011;8999;48.994;9.150;2024-01-27T08:52:29;20.33;;;12.33;;
17753;SDS011;8999;48.994;9.150;2024-01-27T08:55:01;18.70;;;12.37;;
17753;SDS011;8999;48.994;9.150;2024-01-27T08:57:33;20.27;;;11.87;;
17753;SDS011;8999;48.994;9.150;2024-01-27T09:00:05;20.07;;;11.03;;
17753;SDS011;8999;48.994;9.150;2024-01-27T09:02:39;18.90;;;12.13;;
17753;SDS011;8999;48.994;9.150;2024-01-27T09:05:11;18.23;;;10.80;;
17753;SDS011;8999;48.994;9.150;2024-01-27T09:07:42;17.50;;;11.63;;
17753;SDS011;8999;48.994;9.150;2024-01-27T09:10:14;23.37;;;12.23;;
17753;SDS011;8999;48.994;9.150;2024-01-27T09:12:46;25.03;;;13.10;;
17753;SDS011;8999;48.994;9.150;2024-01-27T09:15:17;21.17;;;11.63;;
17753;SDS011;8999;48.994;9.150;2024-01-27T09:17:50;19.93;;;11.00;;
17753;SDS011;8999;48.994;9.150;2024-01-27T09:20:22;15.43;;;10.07;;
17753;SDS011;8999;48.994;9.150;2024-01-27T09:22:53;23.63;;;11.07;;
17753;SDS011;8999;48.994;9.150;2024-01-27T09:25:26;18.03;;;10.53;;
17753;SDS011;8999;48.994;9.150;2024-01-27T09:27:58;20.27;;;11.93;;
17753;SDS011;8999;48.994;9.150;2024-01-27T09:30:30;22.10;;;11.83;;
17753;SDS011;8999;48.994;9.150;2024-01-27T09:33:04;13.97;;;9.20;;
17753;SDS011;8999;48.994;9.150;2024-01-27T09:35:38;16.10;;;9.53;;
17753;SDS011;8999;48.994;9.150;2024-01-27T09:38:10;14.50;;;9.17;;
17753;SDS011;8999;48.994;9.150;2024-01-27T09:40:44;14.20;;;9.07;;
17753;SDS011;8999;48.994;9.150;2024-01-27T09:43:17;17.30;;;8.70;;
17753;SDS011;8999;48.994;9.150;2024-01-27T09:45:49;14.37;;;8.97;;
17753;SDS011;8999;48.994;9.150;2024-01-27T09:48:25;20.80;;;9.87;;
17753;SDS011;8999;48.994;9.150;2024-01-27T09:50:58;18.30;;;9.23;;
17753;SDS011;8999;48.994;9.150;2024-01-27T09:53:30;13.07;;;8.10;;
17753;SDS011;8999;48.994;9.150;2024-01-27T09:56:01;16.07;;;8.17;;
17753;SDS011;8999;48.994;9.150;2024-01-27T09:58:34;17.97;;;7.87;;
17753;SDS011;8999;48.994;9.150;2024-01-27T10:01:06;17.63;;;7.80;;
17753;SDS011;8999;48.994;9.150;2024-01-27T10:03:41;12.47;;;7.43;;
17753;SDS011;8999;48.994;9.150;2024-01-27T10:06:13;15.23;;;7.20;;
17753;SDS011;8999;48.994;9.150;2024-01-27T10:08:46;13.57;;;7.23;;
17753;SDS011;8999;48.994;9.150;2024-01-27T10:11:23;12.80;;;7.10;;
17753;SDS011;8999;48.994;9.150;2024-01-27T10:13:55;13.37;;;7.67;;
17753;SDS011;8999;48.994;9.150;2024-01-27T10:16:27;14.33;;;6.57;;
17753;SDS011;8999;48.994;9.150;2024-01-27T10:19:01;10.37;;;6.33;;
17753;SDS011;8999;48.994;9.150;2024-01-27T10:21:33;12.10;;;6.40;;
17753;SDS011;8999;48.994;9.150;2024-01-27T10:24:05;11.20;;;6.70;;
17753;SDS011;8999;48.994;9.150;2024-01-27T10:26:38;13.60;;;6.00;;
17753;SDS011;8999;48.994;9.150;2024-01-27T10:29:12;13.13;;;6.70;;
17753;SDS011;8999;48.994;9.150;2024-01-27T10:31:44;14.87;;;6.63;;
17753;SDS011;8999;48.994;9.150;2024-01-27T10:34:20;11.40;;;6.37;;
17753;SDS011;8999;48.994;9.150;2024-01-27T10:36:52;12.87;;;6.07;;
17753;SDS011;8999;48.994;9.150;2024-01-27T10:39:24;10.63;;;6.67;;
17753;SDS011;8999;48.994;9.150;2024-01-27T10:41:55;12.07;;;5.63;;
17753;SDS011;8999;48.994;9.150;2024-01-27T10:44:27;11.40;;;6.07;;
17753;SDS011;8999;48.994;9.150;2024-01-27T10:47:00;10.57;;;5.97;;
17753;SDS011;8999;48.994;9.150;2024-01-27T10:49:35;20.57;;;7.60;;
17753;SDS011;8999;48.994;9.150;2024-01-27T10:52:09;10.60;;;5.60;;
17753;SDS011;8999;48.994;9.150;2024-01-27T10:54:42;9.93;;;5.60;;
17753;SDS011;8999;48.994;9.150;2024-01-27T10:57:14;9.02;;;4.60;;
17753;SDS011;8999;48.994;9.150;2024-01-27T10:59:46;10.10;;;4.18;;
17753;SDS011;8999;48.994;9.150;2024-01-27T11:02:19;6.22;;;3.55;;
17753;SDS011;8999;48.994;9.150;2024-01-27T11:04:53;9.20;;;3.47;;
17753;SDS011;8999;48.994;9.150;2024-01-27T11:07:25;10.10;;;3.97;;
17753;SDS011;8999;48.994;9.150;2024-01-27T11:09:57;10.35;;;4.25;;
17753;SDS011;8999;48.994;9.150;2024-01-27T11:12:28;11.13;;;5.07;;
17753;SDS011;8999;48.994;9.150;2024-01-27T11:15:00;10.65;;;4.90;;
17753;SDS011;8999;48.994;9.150;2024-01-27T11:17:37;10.48;;;4.85;;
17753;SDS011;8999;48.994;9.150;2024-01-27T11:20:11;9.73;;;4.90;;
17753;SDS011;8999;48.994;9.150;2024-01-27T11:22:45;11.32;;;5.38;;
17753;SDS011;8999;48.994;9.150;2024-01-27T11:25:17;13.57;;;5.28;;
17753;SDS011;8999;48.994;9.150;2024-01-27T11:27:50;9.88;;;4.80;;
17753;SDS011;8999;48.994;9.150;2024-01-27T11:30:26;12.85;;;5.05;;
17753;SDS011;8999;48.994;9.150;2024-01-27T11:33:00;9.10;;;3.97;;
17753;SDS011;8999;48.994;9.150;2024-01-27T11:35:34;5.32;;;3.78;;
17753;SDS011;8999;48.994;9.150;2024-01-27T11:38:06;10.75;;;5.00;;
17753;SDS011;8999;48.994;9.150;2024-01-27T11:40:44;12.70;;;4.57;;
17753;SDS011;8999;48.994;9.150;2024-01-27T11:43:16;11.88;;;5.00;;
17753;SDS011;8999;48.994;9.150;2024-01-27T11:45:55;10.52;;;4.85;;
17753;SDS011;8999;48.994;9.150;2024-01-27T11:48:27;13.68;;;5.35;;
17753;SDS011;8999;48.994;9.150;2024-01-27T11:51:03;9.00;;;4.30;;
17753;SDS011;8999;48.994;9.150;2024-01-27T11:53:36;13.30;;;4.53;;
17753;SDS011;8999;48.994;9.150;2024-01-27T11:56:08;9.00;;;3.80;;
17753;SDS011;8999;48.994;9.150;2024-01-27T11:58:45;7.63;;;3.60;;
17753;SDS011;8999;48.994;9.150;2024-01-27T12:01:17;9.75;;;3.50;;
17753;SDS011;8999;48.994;9.150;2024-01-27T12:03:49;8.02;;;3.45;;
17753;SDS011;8999;48.994;9.150;2024-01-27T12:06:22;13.50;;;4.32;;
17753;SDS011;8999;48.994;9.150;2024-01-27T12:08:55;6.90;;;4.15;;
17753;SDS011;8999;48.994;9.150;2024-01-27T12:11:27;8.73;;;4.55;;
17753;SDS011;8999;48.994;9.150;2024-01-27T12:14:00;12.38;;;5.47;;
17753;SDS011;8999;48.994;9.150;2024-01-27T12:16:32;9.57;;;4.55;;
17753;SDS011;8999;48.994;9.150;2024-01-27T12:19:04;7.45;;;4.57;;
17753;SDS011;8999;48.994;9.150;2024-01-27T12:21:37;10.23;;;4.55;;
17753;SDS011;8999;48.994;9.150;2024-01-27T12:24:13;8.00;;;4.60;;
17753;SDS011;8999;48.994;9.150;2024-01-27T12:26:46;4.75;;;3.65;;
17753;SDS011;8999;48.994;9.150;2024-01-27T12:29:19;8.48;;;4.20;;
17753;SDS011;8999;48.994;9.150;2024-01-27T12:31:51;10.57;;;4.72;;
17753;SDS011;8999;48.994;9.150;2024-01-27T12:34:23;12.05;;;4.03;;
17753;SDS011;8999;48.994;9.150;2024-01-27T12:36:57;6.30;;;3.15;;
17753;SDS011;8999;48.994;9.150;2024-01-27T12:39:28;7.55;;;4.03;;
17753;SDS011;8999;48.994;9.150;2024-01-27T12:42:00;10.32;;;3.55;;
17753;SDS011;8999;48.994;9.150;2024-01-27T12:44:32;10.15;;;3.65;;
17753;SDS011;8999;48.994;9.150;2024-01-27T12:47:04;6.90;;;3.30;;
17753;SDS011;8999;48.994;9.150;2024-01-27T12:49:36;7.15;;;3.25;;
17753;SDS011;8999;48.994;9.150;2024-01-27T12:52:10;7.80;;;3.13;;
17753;SDS011;8999;48.994;9.150;2024-01-27T12:54:41;10.13;;;3.60;;
17753;SDS011;8999;48.994;9.150;2024-01-27T12:57:14;8.80;;;3.25;;
17753;SDS011;8999;48.994;9.150;2024-01-27T12:59:47;10.77;;;3.50;;
17753;SDS011;8999;48.994;9.150;2024-01-27T13:02:19;9.85;;;3.80;;
17753;SDS011;8999;48.994;9.150;2024-01-27T13:04:53;7.53;;;2.80;;
17753;SDS011;8999;48.994;9.150;2024-01-27T13:07:27;5.45;;;3.35;;
17753;SDS011;8999;48.994;9.150;2024-01-27T13:09:58;10.65;;;3.30;;
17753;SDS011;8999;48.994;9.150;2024-01-27T13:12:30;10.57;;;3.42;;
17753;SDS011;8999;48.994;9.150;2024-01-27T13:15:03;7.15;;;2.90;;
17753;SDS011;8999;48.994;9.150;2024-01-27T13:17:35;5.03;;;2.72;;
17753;SDS011;8999;48.994;9.150;2024-01-27T13:20:07;9.20;;;3.28;;
17753;SDS011;8999;48.994;9.150;2024-01-27T13:22:41;8.32;;;3.20;;
17753;SDS011;8999;48.994;9.150;2024-01-27T13:25:13;10.00;;;2.95;;
17753;SDS011;8999;48.994;9.150;2024-01-27T13:27:44;6.57;;;3.13;;
17753;SDS011;8999;48.994;9.150;2024-01-27T13:30:16;6.75;;;2.63;;
17753;SDS011;8999;48.994;9.150;2024-01-27T13:32:48;8.48;;;3.10;;
17753;SDS011;8999;48.994;9.150;2024-01-27T13:35:20;7.75;;;3.60;;
17753;SDS011;8999;48.994;9.150;2024-01-27T13:37:53;5.68;;;2.72;;
17753;SDS011;8999;48.994;9.150;2024-01-27T13:40:24;7.20;;;2.78;;
17753;SDS011;8999;48.994;9.150;2024-01-27T13:42:57;8.70;;;3.20;;
17753;SDS011;8999;48.994;9.150;2024-01-27T13:45:30;8.48;;;3.17;;
17753;SDS011;8999;48.994;9.150;2024-01-27T13:48:01;8.57;;;3.20;;
17753;SDS011;8999;48.994;9.150;2024-01-27T13:50:33;6.60;;;3.20;;
17753;SDS011;8999;48.994;9.150;2024-01-27T13:53:06;7.47;;;3.05;;
17753;SDS011;8999;48.994;9.150;2024-01-27T13:55:38;5.20;;;3.58;;
17753;SDS011;8999;48.994;9.150;2024-01-27T13:58:12;8.85;;;3.50;;
17753;SDS011;8999;48.994;9.150;2024-01-27T14:00:44;7.18;;;3.17;;
17753;SDS011;8999;48.994;9.150;2024-01-27T14:03:16;7.63;;;3.22;;
17753;SDS011;8999;48.994;9.150;2024-01-27T14:05:47;4.45;;;2.83;;
17753;SDS011;8999;48.994;9.150;2024-01-27T14:08:20;3.67;;;2.38;;
17753;SDS011;8999;48.994;9.150;2024-01-27T14:10:52;5.93;;;2.83;;
17753;SDS011;8999;48.994;9.150;2024-01-27T14:13:24;8.65;;;3.30;;
17753;SDS011;8999;48.994;9.150;2024-01-27T14:15:55;7.93;;;2.85;;
17753;SDS011;8999;48.994;9.150;2024-01-27T14:18:28;7.20;;;3.03;;
17753;SDS011;8999;48.994;9.150;2024-01-27T14:21:01;8.55;;;2.90;;
17753;SDS011;8999;48.994;9.150;2024-01-27T14:23:34;5.32;;;2.58;;
17753;SDS011;8999;48.994;9.150;2024-01-27T14:26:07;6.38;;;2.28;;
17753;SDS011;8999;48.994;9.150;2024-01-27T14:28:44;10.45;;;3.03;;
17753;SDS011;8999;48.994;9.150;2024-01-27T14:31:16;8.13;;;3.05;;
17753;SDS011;8999;48.994;9.150;2024-01-27T14:33:48;5.05;;;2.40;;
17753;SDS011;8999;48.994;9.150;2024-01-27T14:36:20;7.78;;;3.20;;
17753;SDS011;8999;48.994;9.150;2024-01-27T14:38:54;5.57;;;2.65;;
17753;SDS011;8999;48.994;9.150;2024-01-27T14:41:26;8.38;;;2.88;;
17753;SDS011;8999;48.994;9.150;2024-01-27T14:43:58;9.80;;;2.70;;
17753;SDS011;8999;48.994;9.150;2024-01-27T14:46:30;8.75;;;2.78;;
17753;SDS011;8999;48.994;9.150;2024-01-27T14:49:01;8.52;;;2.75;;
17753;SDS011;8999;48.994;9.150;2024-01-27T14:51:33;9.45;;;2.95;;
17753;SDS011;8999;48.994;9.150;2024-01-27T14:54:06;5.10;;;2.88;;
17753;SDS011;8999;48.994;9.150;2024-01-27T14:56:38;4.78;;;2.40;;
17753;SDS011;8999;48.994;9.150;2024-01-27T14:59:10;10.43;;;2.88;;
17753;SDS011;8999;48.994;9.150;2024-01-27T15:01:42;11.07;;;3.05;;
17753;SDS011;8999;48.994;9.150;2024-01-27T15:04:14;8.20;;;2.65;;
17753;SDS011;8999;48.994;9.150;2024-01-27T15:06:45;10.60;;;2.47;;
17753;SDS011;8999;48.994;9.150;2024-01-27T15:09:19;8.65;;;2.90;;
17753;SDS011;8999;48.994;9.150;2024-01-27T15:11:50;10.07;;;3.40;;
17753;SDS011;8999;48.994;9.150;2024-01-27T15:14:22;6.05;;;3.00;;
17753;SDS011;8999;48.994;9.150;2024-01-27T15:16:54;5.18;;;2.70;;
17753;SDS011;8999;48.994;9.150;2024-01-27T15:19:27;4.28;;;2.85;;
17753;SDS011;8999;48.994;9.150;2024-01-27T15:21:59;4.97;;;2.67;;
17753;SDS011;8999;48.994;9.150;2024-01-27T15:24:32;9.85;;;3.20;;
17753;SDS011;8999;48.994;9.150;2024-01-27T15:27:06;7.03;;;2.60;;